Date,TemperatureHighF,TemperatureAvgF,TemperatureLowF,DewpointHighF,DewpointAvgF,DewpointLowF,HumidityHigh,HumidityAvg,HumidityLow,PressureMaxIn,PressureMinIn,WindSpeedMaxMPH,WindSpeedAvgMPH,GustSpeedMaxMPH,PrecipitationSumIn
2013-10-1,80,68,59,66,63,57,98,86,61,29.96,29.88,19,8,19,0.00
2013-10-2,81,69,61,68,65,60,100,90,60,30.04,29.93,12,3,12,0.01
2013-10-3,86,70,64,71,66,62,99,91,53,29.93,29.80,26,6,26,0.61
2013-10-4,86,73,64,72,67,62,98,81,52,29.93,29.86,13,5,14,0.00
2013-10-5,82,71,60,73,68,56,98,89,56,29.90,29.73,14,4,14,0.27
2013-10-6,62,53,45,56,46,39,97,80,50,29.79,29.71,17,3,20,0.05
2013-10-7,70,54,42,51,46,40,98,77,45,30.06,29.78,11,2,11,0.00
2013-10-8,78,62,49,48,47,45,88,62,32,30.14,30.06,10,2,10,0.00
2013-10-9,76,56,41,51,44,39,97,69,30,30.20,30.08,10,2,12,0.00
2013-10-10,78,60,44,59,51,42,97,75,44,30.14,30.00,12,1,12,0.00
2013-10-11,79,64,52,61,55,50,96,74,43,30.03,29.89,20,4,21,0.00
2013-10-12,74,62,44,64,56,39,96,83,60,30.17,29.92,15,4,15,0.00
2013-10-13,68,51,37,44,36,30,92,63,25,30.37,30.17,11,2,15,0.00
2013-10-14,69,49,34,46,37,32,98,69,26,30.37,30.09,14,3,16,0.00
2013-10-15,66,58,47,63,54,42,97,86,73,30.09,29.79,18,7,19,0.05
2013-10-16,57,50,41,47,44,39,95,82,66,29.96,29.88,16,2,16,0.00
2013-10-17,60,48,41,49,43,37,97,82,51,29.95,29.84,11,2,11,0.01
2013-10-18,54,45,36,44,40,35,97,84,60,29.99,29.86,11,2,11,0.00
2013-10-19,56,47,40,43,39,34,97,76,48,29.96,29.83,17,5,18,0.10
2013-10-20,70,53,38,45,41,36,92,66,36,29.88,29.73,28,11,28,0.00
2013-10-21,55,44,26,46,35,22,89,71,45,30.01,29.81,17,3,17,0.00
2013-10-22,45,35,24,40,32,21,98,89,69,30.01,29.85,15,4,15,0.50
2013-10-23,46,38,32,38,33,30,98,85,58,30.07,29.93,12,3,13,0.00
2013-10-24,41,36,28,35,29,25,96,77,55,30.34,30.06,18,3,18,0.01
2013-10-25,53,38,23,34,28,20,94,70,40,30.45,30.14,14,4,17,0.00
2013-10-26,58,44,30,41,32,27,88,64,39,30.13,29.91,22,7,22,0.00
2013-10-27,56,39,26,37,29,23,92,70,38,30.10,29.99,12,2,14,0.00
2013-10-28,62,43,27,41,32,24,93,70,34,30.31,30.06,9,2,10,0.00
2013-10-29,57,45,31,50,41,31,98,87,57,30.31,30.10,10,3,11,0.01
2013-10-30,65,58,50,64,57,50,100,98,92,30.10,29.77,21,7,25,0.95
2013-10-31,64,58,45,63,57,43,99,96,92,29.77,29.24,28,9,28,0.55